sensor_id;sensor_type;location;lat;lon;timestamp;pressure;altitude;pressure_sealevel;temperature;humidity
70468;BME280;57934;51.532;7.684;2023-02-22T00:00:42;100362.28;;;7.09;100.00
70468;BME280;57934;51.532;7.684;2023-02-22T00:03:23;100359.00;;;7.07;100.00
70468;BME280;57934;51.532;7.684;2023-02-22T00:05:58;100357.03;;;7.01;100.00
70468;BME280;57934;51.532;7.684;2023-02-22T00:08:26;100355.91;;;6.96;100.00
70468;BME280;57934;51.532;7.684;2023-02-22T00:10:56;100348.69;;;6.98;100.00
70468;BME280;57934;51.532;7.684;2023-02-22T00:13:22;100346.09;;;6.89;100.00
70468;BME280;57934;51.532;7.684;2023-02-22T00:15:48;100343.50;;;6.81;100.00
70468;BME280;57934;51.532;7.684;2023-02-22T00:18:16;100339.56;;;6.77;100.00
70468;BME280;57934;51.532;7.684;2023-02-22T00:20:43;100336.94;;;6.85;100.00
70468;BME280;57934;51.532;7.684;2023-02-22T00:23:15;100335.31;;;6.76;100.00
70468;BME280;57934;51.532;7.684;2023-02-22T00:25:45;100327.47;;;6.60;100.00
70468;BME280;57934;51.532;7.684;2023-02-22T00:28:11;100323.91;;;6.44;100.00
70468;BME280;57934;51.532;7.684;2023-02-22T00:30:37;100322.78;;;6.39;100.00
70468;BME280;57934;51.532;7.684;2023-02-22T00:33:03;100323.75;;;6.38;100.00
70468;BME280;57934;51.532;7.684;2023-02-22T00:35:32;100331.44;;;6.31;100.00
70468;BME280;57934;51.532;7.684;2023-02-22T00:37:59;100329.63;;;6.24;100.00
70468;BME280;57934;51.532;7.684;2023-02-22T00:40:30;100324.91;;;6.19;100.00
70468;BME280;57934;51.532;7.684;2023-02-22T00:42:58;100324.06;;;6.10;100.00
70468;BME280;57934;51.532;7.684;2023-02-22T00:45:26;100323.91;;;6.12;100.00
70468;BME280;57934;51.532;7.684;2023-02-22T00:47:52;100318.66;;;6.04;100.00
70468;BME280;57934;51.532;7.684;2023-02-22T00:50:20;100316.03;;;5.95;100.00
70468;BME280;57934;51.532;7.684;2023-02-22T00:52:46;100316.03;;;6.04;100.00
70468;BME280;57934;51.532;7.684;2023-02-22T00:55:22;100319.16;;;5.99;100.00
70468;BME280;57934;51.532;7.684;2023-02-22T00:57:48;100315.41;;;5.93;100.00
70468;BME280;57934;51.532;7.684;2023-02-22T01:00:23;100308.19;;;5.95;100.00
70468;BME280;57934;51.532;7.684;2023-02-22T01:02:50;100303.63;;;5.97;100.00
70468;BME280;57934;51.532;7.684;2023-02-22T01:05:21;100295.56;;;5.91;100.00
70468;BME280;57934;51.532;7.684;2023-02-22T01:07:48;100297.69;;;5.87;100.00
70468;BME280;57934;51.532;7.684;2023-02-22T01:10:17;100300.63;;;5.76;100.00
70468;BME280;57934;51.532;7.684;2023-02-22T01:12:45;100297.16;;;5.67;100.00
70468;BME280;57934;51.532;7.684;2023-02-22T01:15:11;100296.19;;;5.68;100.00
70468;BME280;57934;51.532;7.684;2023-02-22T01:17:38;100288.69;;;5.65;100.00
70468;BME280;57934;51.532;7.684;2023-02-22T01:20:07;100294.72;;;5.66;100.00
70468;BME280;57934;51.532;7.684;2023-02-22T01:22:41;100298.00;;;5.68;100.00
70468;BME280;57934;51.532;7.684;2023-02-22T01:25:10;100289.19;;;5.69;100.00
70468;BME280;57934;51.532;7.684;2023-02-22T01:27:36;100292.44;;;5.71;100.00
70468;BME280;57934;51.532;7.684;2023-02-22T01:30:05;100281.34;;;5.77;100.00
70468;BME280;57934;51.532;7.684;2023-02-22T01:32:35;100286.88;;;5.74;100.00
70468;BME280;57934;51.532;7.684;2023-02-22T01:35:02;100287.06;;;5.72;100.00
70468;BME280;57934;51.532;7.684;2023-02-22T01:37:34;100279.84;;;5.74;100.00
70468;BME280;57934;51.532;7.684;2023-02-22T01:40:00;100273.47;;;5.77;100.00
70468;BME280;57934;51.532;7.684;2023-02-22T01:42:27;100270.53;;;5.80;100.00
70468;BME280;57934;51.532;7.684;2023-02-22T01:48:14;100263.34;;;5.74;100.00
70468;BME280;57934;51.532;7.684;2023-02-22T01:50:52;100253.69;;;5.58;100.00
70468;BME280;57934;51.532;7.684;2023-02-22T01:53:24;100253.34;;;5.53;100.00
70468;BME280;57934;51.532;7.684;2023-02-22T01:55:54;100248.09;;;5.45;100.00
70468;BME280;57934;51.532;7.684;2023-02-22T01:58:22;100248.25;;;5.43;100.00
70468;BME280;57934;51.532;7.684;2023-02-22T02:00:49;100249.41;;;5.41;100.00
70468;BME280;57934;51.532;7.684;2023-02-22T02:03:21;100245.31;;;5.38;100.00
70468;BME280;57934;51.532;7.684;2023-02-22T02:05:50;100245.47;;;5.37;100.00
70468;BME280;57934;51.532;7.684;2023-02-22T02:08:28;100241.03;;;5.29;100.00
70468;BME280;57934;51.532;7.684;2023-02-22T02:10:57;100246.88;;;5.15;100.00
70468;BME280;57934;51.532;7.684;2023-02-22T02:13:25;100253.09;;;5.14;100.00
70468;BME280;57934;51.532;7.684;2023-02-22T02:15:53;100244.88;;;5.09;100.00
70468;BME280;57934;51.532;7.684;2023-02-22T02:18:20;100248.50;;;5.08;100.00
70468;BME280;57934;51.532;7.684;2023-02-22T02:24:10;100243.06;;;4.93;100.00
70468;BME280;57934;51.532;7.684;2023-02-22T02:26:57;100232.44;;;4.94;100.00
70468;BME280;57934;51.532;7.684;2023-02-22T02:32:47;100233.94;;;5.05;100.00
70468;BME280;57934;51.532;7.684;2023-02-22T02:35:28;100225.16;;;5.06;100.00
70468;BME280;57934;51.532;7.684;2023-02-22T02:41:14;100229.88;;;5.02;100.00
70468;BME280;57934;51.532;7.684;2023-02-22T02:43:58;100223.84;;;5.02;100.00
70468;BME280;57934;51.532;7.684;2023-02-22T02:46:40;100226.59;;;5.00;100.00
70468;BME280;57934;51.532;7.684;2023-02-22T02:49:13;100224.28;;;4.97;100.00
70468;BME280;57934;51.532;7.684;2023-02-22T02:51:46;100222.81;;;4.95;100.00
70468;BME280;57934;51.532;7.684;2023-02-22T02:54:13;100218.41;;;4.95;100.00
70468;BME280;57934;51.532;7.684;2023-02-22T02:56:40;100224.97;;;4.99;100.00
70468;BME280;57934;51.532;7.684;2023-02-22T02:59:27;100217.25;;;4.90;100.00
70468;BME280;57934;51.532;7.684;2023-02-22T03:05:22;100209.72;;;4.87;100.00
70468;BME280;57934;51.532;7.684;2023-02-22T03:11:02;100204.63;;;4.77;100.00
70468;BME280;57934;51.532;7.684;2023-02-22T03:13:39;100199.44;;;4.85;100.00
70468;BME280;57934;51.532;7.684;2023-02-22T03:19:20;100184.91;;;4.91;100.00
70468;BME280;57934;51.532;7.684;2023-02-22T03:22:00;100192.59;;;4.92;100.00
70468;BME280;57934;51.532;7.684;2023-02-22T03:27:35;100184.56;;;4.77;100.00
70468;BME280;57934;51.532;7.684;2023-02-22T03:30:06;100191.72;;;4.75;100.00
70468;BME280;57934;51.532;7.684;2023-02-22T03:32:37;100186.31;;;4.69;100.00
70468;BME280;57934;51.532;7.684;2023-02-22T03:35:17;100185.31;;;4.70;100.00
70468;BME280;57934;51.532;7.684;2023-02-22T03:37:46;100184.50;;;4.69;100.00
70468;BME280;57934;51.532;7.684;2023-02-22T03:40:17;100175.38;;;4.65;100.00
70468;BME280;57934;51.532;7.684;2023-02-22T03:42:58;100182.81;;;4.52;100.00
70468;BME280;57934;51.532;7.684;2023-02-22T03:45:28;100172.53;;;4.50;100.00
70468;BME280;57934;51.532;7.684;2023-02-22T03:48:06;100170.72;;;4.43;100.00
70468;BME280;57934;51.532;7.684;2023-02-22T03:50:37;100171.31;;;4.37;100.00
70468;BME280;57934;51.532;7.684;2023-02-22T03:53:05;100161.69;;;4.37;100.00
70468;BME280;57934;51.532;7.684;2023-02-22T03:55:34;100167.41;;;4.33;100.00
70468;BME280;57934;51.532;7.684;2023-02-22T03:58:08;100159.84;;;4.21;100.00
70468;BME280;57934;51.532;7.684;2023-02-22T04:00:37;100164.69;;;4.16;100.00
70468;BME280;57934;51.532;7.684;2023-02-22T04:03:03;100161.53;;;4.04;100.00
70468;BME280;57934;51.532;7.684;2023-02-22T04:05:29;100154.78;;;3.94;100.00
70468;BME280;57934;51.532;7.684;2023-02-22T04:07:56;100151.50;;;3.92;100.00
70468;BME280;57934;51.532;7.684;2023-02-22T04:10:24;100154.88;;;3.84;100.00
70468;BME280;57934;51.532;7.684;2023-02-22T04:12:50;100156.97;;;3.80;100.00
70468;BME280;57934;51.532;7.684;2023-02-22T04:15:20;100154.84;;;3.76;100.00
70468;BME280;57934;51.532;7.684;2023-02-22T04:17:48;100159.06;;;3.77;100.00
70468;BME280;57934;51.532;7.684;2023-02-22T04:20:15;100159.88;;;3.77;100.00
70468;BME280;57934;51.532;7.684;2023-02-22T04:22:52;100156.59;;;3.75;100.00
70468;BME280;57934;51.532;7.684;2023-02-22T04:25:19;100157.75;;;3.73;100.00
70468;BME280;57934;51.532;7.684;2023-02-22T04:27:46;100152.00;;;3.69;100.00
70468;BME280;57934;51.532;7.684;2023-02-22T04:30:16;100150.16;;;3.62;100.00
70468;BME280;57934;51.532;7.684;2023-02-22T04:32:43;100155.00;;;3.56;100.00
70468;BME280;57934;51.532;7.684;2023-02-22T04:35:10;100147.19;;;3.56;100.00
70468;BME280;57934;51.532;7.684;2023-02-22T04:37:36;100144.44;;;3.58;100.00
70468;BME280;57934;51.532;7.684;2023-02-22T04:40:05;100147.19;;;3.56;100.00
70468;BME280;57934;51.532;7.684;2023-02-22T04:42:36;100139.94;;;3.50;100.00
70468;BME280;57934;51.532;7.684;2023-02-22T04:45:04;100145.16;;;3.50;100.00
70468;BME280;57934;51.532;7.684;2023-02-22T04:47:34;100134.22;;;3.47;100.00
70468;BME280;57934;51.532;7.684;2023-02-22T04:50:02;100143.47;;;3.41;100.00
70468;BME280;57934;51.532;7.684;2023-02-22T04:52:29;100138.34;;;3.31;100.00
70468;BME280;57934;51.532;7.684;2023-02-22T04:54:55;100130.38;;;3.33;100.00
70468;BME280;57934;51.532;7.684;2023-02-22T04:57:21;100131.63;;;3.29;100.00
70468;BME280;57934;51.532;7.684;2023-02-22T04:59:49;100128.22;;;3.28;100.00
70468;BME280;57934;51.532;7.684;2023-02-22T05:02:16;100126.38;;;3.21;100.00
70468;BME280;57934;51.532;7.684;2023-02-22T05:04:42;100121.97;;;3.21;100.00
70468;BME280;57934;51.532;7.684;2023-02-22T05:07:09;100121.69;;;3.24;100.00
70468;BME280;57934;51.532;7.684;2023-02-22T05:09:35;100114.97;;;3.22;100.00
70468;BME280;57934;51.532;7.684;2023-02-22T05:12:01;100117.56;;;3.22;100.00
70468;BME280;57934;51.532;7.684;2023-02-22T05:14:27;100112.81;;;3.17;100.00
70468;BME280;57934;51.532;7.684;2023-02-22T05:16:55;100107.09;;;3.14;100.00
70468;BME280;57934;51.532;7.684;2023-02-22T05:19:22;100102.84;;;3.13;100.00
70468;BME280;57934;51.532;7.684;2023-02-22T05:21:49;100101.19;;;3.11;100.00
70468;BME280;57934;51.532;7.684;2023-02-22T05:24:15;100104.78;;;3.10;100.00
70468;BME280;57934;51.532;7.684;2023-02-22T05:26:42;100102.00;;;3.12;100.00
70468;BME280;57934;51.532;7.684;2023-02-22T05:29:09;100096.66;;;3.14;100.00
70468;BME280;57934;51.532;7.684;2023-02-22T05:31:35;100102.69;;;3.14;100.00
70468;BME280;57934;51.532;7.684;2023-02-22T05:34:01;100098.88;;;3.08;100.00
70468;BME280;57934;51.532;7.684;2023-02-22T05:36:26;100100.84;;;3.06;100.00
70468;BME280;57934;51.532;7.684;2023-02-22T05:38:53;100099.22;;;3.05;100.00
70468;BME280;57934;51.532;7.684;2023-02-22T05:41:19;100099.88;;;3.07;100.00
70468;BME280;57934;51.532;7.684;2023-02-22T05:43:46;100099.22;;;3.05;100.00
70468;BME280;57934;51.532;7.684;2023-02-22T05:46:13;100091.53;;;3.04;100.00
70468;BME280;57934;51.532;7.684;2023-02-22T05:48:39;100097.03;;;3.01;100.00
70468;BME280;57934;51.532;7.684;2023-02-22T05:51:05;100099.63;;;3.01;100.00
70468;BME280;57934;51.532;7.684;2023-02-22T05:53:32;100095.41;;;3.00;100.00
70468;BME280;57934;51.532;7.684;2023-02-22T05:55:58;100103.22;;;3.00;100.00
70468;BME280;57934;51.532;7.684;2023-02-22T05:58:24;100105.13;;;2.98;100.00
70468;BME280;57934;51.532;7.684;2023-02-22T06:00:50;100096.81;;;2.94;100.00
70468;BME280;57934;51.532;7.684;2023-02-22T06:03:16;100099.41;;;2.94;100.00
70468;BME280;57934;51.532;7.684;2023-02-22T06:05:42;100100.09;;;2.96;100.00
70468;BME280;57934;51.532;7.684;2023-02-22T06:08:08;100103.00;;;2.93;100.00
70468;BME280;57934;51.532;7.684;2023-02-22T06:10:34;100096.69;;;2.96;100.00
70468;BME280;57934;51.532;7.684;2023-02-22T06:13:00;100106.28;;;2.95;100.00
70468;BME280;57934;51.532;7.684;2023-02-22T06:15:27;100105.44;;;2.95;100.00
70468;BME280;57934;51.532;7.684;2023-02-22T06:17:54;100103.00;;;2.93;100.00
70468;BME280;57934;51.532;7.684;2023-02-22T06:20:23;100102.69;;;2.96;100.00
70468;BME280;57934;51.532;7.684;2023-02-22T06:22:50;100104.31;;;2.97;100.00
70468;BME280;57934;51.532;7.684;2023-02-22T06:25:19;100102.84;;;2.95;100.00
70468;BME280;57934;51.532;7.684;2023-02-22T06:27:45;100113.41;;;2.93;100.00
70468;BME280;57934;51.532;7.684;2023-02-22T06:30:14;100109.47;;;2.89;100.00
70468;BME280;57934;51.532;7.684;2023-02-22T06:32:41;100106.19;;;2.87;100.00
70468;BME280;57934;51.532;7.684;2023-02-22T06:35:07;100106.47;;;2.84;100.00
70468;BME280;57934;51.532;7.684;2023-02-22T06:37:33;100110.72;;;2.85;100.00
70468;BME280;57934;51.532;7.684;2023-02-22T06:39:59;100110.06;;;2.83;100.00
70468;BME280;57934;51.532;7.684;2023-02-22T06:42:25;100113.47;;;2.83;100.00
70468;BME280;57934;51.532;7.684;2023-02-22T06:44:51;100110.56;;;2.86;100.00
70468;BME280;57934;51.532;7.684;2023-02-22T06:47:17;100112.19;;;2.87;100.00
70468;BME280;57934;51.532;7.684;2023-02-22T06:49:43;100111.78;;;2.92;100.00
70468;BME280;57934;51.532;7.684;2023-02-22T06:52:09;100112.31;;;2.96;100.00
70468;BME280;57934;51.532;7.684;2023-02-22T06:54:36;100100.16;;;3.04;100.00
70468;BME280;57934;51.532;7.684;2023-02-22T06:57:03;100109.19;;;3.10;100.00
70468;BME280;57934;51.532;7.684;2023-02-22T06:59:29;100108.59;;;3.16;100.00
70468;BME280;57934;51.532;7.684;2023-02-22T07:01:55;100098.53;;;3.21;100.00
70468;BME280;57934;51.532;7.684;2023-02-22T07:04:21;100106.56;;;3.28;100.00
70468;BME280;57934;51.532;7.684;2023-02-22T07:06:48;100103.88;;;3.38;100.00
70468;BME280;57934;51.532;7.684;2023-02-22T07:09:16;100104.22;;;3.43;100.00
70468;BME280;57934;51.532;7.684;2023-02-22T07:11:43;100095.50;;;3.52;100.00
70468;BME280;57934;51.532;7.684;2023-02-22T07:14:09;100108.13;;;3.65;100.00
70468;BME280;57934;51.532;7.684;2023-02-22T07:16:35;100102.00;;;3.74;100.00
70468;BME280;57934;51.532;7.684;2023-02-22T07:19:01;100104.00;;;3.80;100.00
70468;BME280;57934;51.532;7.684;2023-02-22T07:21:28;100105.66;;;3.89;100.00
70468;BME280;57934;51.532;7.684;2023-02-22T07:23:56;100105.44;;;4.00;100.00
70468;BME280;57934;51.532;7.684;2023-02-22T07:26:22;100108.72;;;4.11;100.00
70468;BME280;57934;51.532;7.684;2023-02-22T07:28:48;100099.97;;;4.20;100.00
70468;BME280;57934;51.532;7.684;2023-02-22T07:31:15;100114.53;;;4.30;100.00
70468;BME280;57934;51.532;7.684;2023-02-22T07:33:41;100107.25;;;4.42;100.00
70468;BME280;57934;51.532;7.684;2023-02-22T07:36:07;100104.84;;;4.57;100.00
70468;BME280;57934;51.532;7.684;2023-02-22T07:38:33;100105.03;;;4.72;100.00
70468;BME280;57934;51.532;7.684;2023-02-22T07:40:59;100105.09;;;4.88;100.00
70468;BME280;57934;51.532;7.684;2023-02-22T07:43:27;100106.88;;;5.04;100.00
70468;BME280;57934;51.532;7.684;2023-02-22T07:45:55;100111.16;;;5.21;99.62
70468;BME280;57934;51.532;7.684;2023-02-22T07:48:23;100106.09;;;5.36;99.36
70468;BME280;57934;51.532;7.684;2023-02-22T07:50:50;100101.19;;;5.49;98.81
70468;BME280;57934;51.532;7.684;2023-02-22T07:55:46;100095.41;;;5.79;97.88
70468;BME280;57934;51.532;7.684;2023-02-22T07:58:20;100105.22;;;6.01;96.98
70468;BME280;57934;51.532;7.684;2023-02-22T08:00:46;100104.34;;;6.17;96.53
70468;BME280;57934;51.532;7.684;2023-02-22T08:03:17;100094.41;;;6.43;95.64
70468;BME280;57934;51.532;7.684;2023-02-22T08:05:46;100086.69;;;6.81;94.90
70468;BME280;57934;51.532;7.684;2023-02-22T08:08:12;100082.47;;;7.18;93.04
70468;BME280;57934;51.532;7.684;2023-02-22T08:10:42;100086.47;;;7.52;91.06
70468;BME280;57934;51.532;7.684;2023-02-22T08:13:09;100073.38;;;7.81;88.18
70468;BME280;57934;51.532;7.684;2023-02-22T08:15:37;100080.69;;;8.16;86.49
70468;BME280;57934;51.532;7.684;2023-02-22T08:18:06;100073.88;;;8.51;84.83
70468;BME280;57934;51.532;7.684;2023-02-22T08:20:34;100072.16;;;9.01;82.70
70468;BME280;57934;51.532;7.684;2023-02-22T08:23:01;100073.41;;;9.54;80.76
70468;BME280;57934;51.532;7.684;2023-02-22T08:25:28;100070.06;;;10.02;78.50
70468;BME280;57934;51.532;7.684;2023-02-22T08:27:59;100066.78;;;10.28;76.69
70468;BME280;57934;51.532;7.684;2023-02-22T08:30:27;100064.59;;;10.38;76.24
70468;BME280;57934;51.532;7.684;2023-02-22T08:32:54;100066.22;;;10.39;76.30
70468;BME280;57934;51.532;7.684;2023-02-22T08:35:21;100069.50;;;10.48;77.18
70468;BME280;57934;51.532;7.684;2023-02-22T08:37:49;100060.81;;;10.61;76.54
70468;BME280;57934;51.532;7.684;2023-02-22T08:42:43;100056.19;;;10.83;76.15
70468;BME280;57934;51.532;7.684;2023-02-22T08:45:10;100054.78;;;10.87;76.41
70468;BME280;57934;51.532;7.684;2023-02-22T08:47:38;100055.97;;;10.71;75.89
70468;BME280;57934;51.532;7.684;2023-02-22T08:50:05;100049.47;;;10.73;76.78
70468;BME280;57934;51.532;7.684;2023-02-22T08:52:31;100052.78;;;11.22;76.18
70468;BME280;57934;51.532;7.684;2023-02-22T08:54:57;100053.31;;;11.97;73.76
70468;BME280;57934;51.532;7.684;2023-02-22T08:57:23;100043.03;;;12.65;70.46
70468;BME280;57934;51.532;7.684;2023-02-22T08:59:49;100053.50;;;13.42;68.98
70468;BME280;57934;51.532;7.684;2023-02-22T09:02:18;100040.25;;;14.04;66.49
70468;BME280;57934;51.532;7.684;2023-02-22T09:04:45;100050.31;;;14.32;65.56
70468;BME280;57934;51.532;7.684;2023-02-22T09:07:11;100046.44;;;14.76;64.14
70468;BME280;57934;51.532;7.684;2023-02-22T09:09:37;100040.06;;;15.08;63.27
70468;BME280;57934;51.532;7.684;2023-02-22T09:12:04;100031.66;;;15.34;61.77
70468;BME280;57934;51.532;7.684;2023-02-22T09:14:30;100033.28;;;15.94;60.85
70468;BME280;57934;51.532;7.684;2023-02-22T09:16:56;100034.56;;;16.20;60.32
70468;BME280;57934;51.532;7.684;2023-02-22T09:19:22;100033.06;;;16.53;59.04
70468;BME280;57934;51.532;7.684;2023-02-22T09:21:54;100027.06;;;16.74;58.54
70468;BME280;57934;51.532;7.684;2023-02-22T09:24:21;100033.72;;;16.60;58.58
70468;BME280;57934;51.532;7.684;2023-02-22T09:26:48;100028.19;;;16.50;57.95
70468;BME280;57934;51.532;7.684;2023-02-22T09:29:23;100020.25;;;16.66;57.85
70468;BME280;57934;51.532;7.684;2023-02-22T09:31:52;100022.34;;;16.93;56.79
70468;BME280;57934;51.532;7.684;2023-02-22T09:34:21;100021.59;;;16.98;56.62
70468;BME280;57934;51.532;7.684;2023-02-22T09:36:53;100014.25;;;17.05;56.26
70468;BME280;57934;51.532;7.684;2023-02-22T09:39:19;100019.00;;;17.36;55.62
70468;BME280;57934;51.532;7.684;2023-02-22T09:41:59;100019.88;;;17.59;54.92
70468;BME280;57934;51.532;7.684;2023-02-22T09:46:56;100023.09;;;17.44;54.55
70468;BME280;57934;51.532;7.684;2023-02-22T09:49:36;100020.97;;;17.24;54.59
70468;BME280;57934;51.532;7.684;2023-02-22T09:52:15;100016.19;;;17.43;54.67
70468;BME280;57934;51.532;7.684;2023-02-22T09:54:46;100017.41;;;17.35;53.38
70468;BME280;57934;51.532;7.684;2023-02-22T09:57:36;100010.22;;;17.02;53.31
70468;BME280;57934;51.532;7.684;2023-02-22T10:00:19;100010.53;;;17.06;52.78
70468;BME280;57934;51.532;7.684;2023-02-22T10:05:38;100008.34;;;16.12;55.30
70468;BME280;57934;51.532;7.684;2023-02-22T10:08:27;100003.44;;;16.32;54.66
70468;BME280;57934;51.532;7.684;2023-02-22T10:16:24;100000.59;;;16.67;54.96
70468;BME280;57934;51.532;7.684;2023-02-22T10:19:09;99996.44;;;16.43;55.07
70468;BME280;57934;51.532;7.684;2023-02-22T10:22:18;99994.69;;;15.44;57.69
70468;BME280;57934;51.532;7.684;2023-02-22T10:25:01;99991.41;;;14.84;59.75
70468;BME280;57934;51.532;7.684;2023-02-22T10:27:37;99991.25;;;14.67;61.19
70468;BME280;57934;51.532;7.684;2023-02-22T10:33:02;99979.13;;;14.59;62.65
70468;BME280;57934;51.532;7.684;2023-02-22T10:35:32;99985.75;;;14.80;61.56
70468;BME280;57934;51.532;7.684;2023-02-22T10:38:27;99981.66;;;14.54;62.21
70468;BME280;57934;51.532;7.684;2023-02-22T10:43:36;99979.09;;;14.89;60.28
70468;BME280;57934;51.532;7.684;2023-02-22T10:46:06;99976.09;;;15.09;60.18
70468;BME280;57934;51.532;7.684;2023-02-22T10:48:35;99981.88;;;15.30;59.55
70468;BME280;57934;51.532;7.684;2023-02-22T10:51:05;99976.66;;;15.46;58.43
70468;BME280;57934;51.532;7.684;2023-02-22T10:53:34;99974.22;;;15.57;57.84
70468;BME280;57934;51.532;7.684;2023-02-22T10:56:18;99974.47;;;15.43;58.63
70468;BME280;57934;51.532;7.684;2023-02-22T10:58:54;99975.28;;;15.56;58.01
70468;BME280;57934;51.532;7.684;2023-02-22T11:01:25;99970.25;;;15.83;58.34
70468;BME280;57934;51.532;7.684;2023-02-22T11:04:13;99964.13;;;15.94;57.75
70468;BME280;57934;51.532;7.684;2023-02-22T11:06:42;99963.13;;;16.12;56.67
70468;BME280;57934;51.532;7.684;2023-02-22T11:09:18;99969.56;;;15.87;56.85
70468;BME280;57934;51.532;7.684;2023-02-22T11:11:48;99963.59;;;15.80;58.02
70468;BME280;57934;51.532;7.684;2023-02-22T11:14:26;99960.28;;;15.90;56.81
70468;BME280;57934;51.532;7.684;2023-02-22T11:16:54;99957.22;;;16.10;57.37
70468;BME280;57934;51.532;7.684;2023-02-22T11:19:32;99959.03;;;16.21;56.16
70468;BME280;57934;51.532;7.684;2023-02-22T11:22:10;99957.03;;;16.28;54.84
70468;BME280;57934;51.532;7.684;2023-02-22T11:24:48;99945.56;;;16.28;54.41
70468;BME280;57934;51.532;7.684;2023-02-22T11:32:46;99952.34;;;17.53;53.08
70468;BME280;57934;51.532;7.684;2023-02-22T11:38:09;99935.84;;;18.87;50.22
70468;BME280;57934;51.532;7.684;2023-02-22T11:40:36;99930.53;;;19.34;48.48
70468;BME280;57934;51.532;7.684;2023-02-22T11:43:06;99926.13;;;19.65;47.69
70468;BME280;57934;51.532;7.684;2023-02-22T11:45:37;99927.50;;;19.78;47.68
70468;BME280;57934;51.532;7.684;2023-02-22T11:48:06;99926.19;;;19.81;46.87
70468;BME280;57934;51.532;7.684;2023-02-22T11:50:43;99920.53;;;19.67;45.71
70468;BME280;57934;51.532;7.684;2023-02-22T11:56:18;99924.28;;;19.18;44.67
70468;BME280;57934;51.532;7.684;2023-02-22T12:01:38;99917.66;;;19.31;46.49
70468;BME280;57934;51.532;7.684;2023-02-22T12:09:59;99905.38;;;20.39;42.24
70468;BME280;57934;51.532;7.684;2023-02-22T12:18:38;99907.56;;;20.62;40.53
70468;BME280;57934;51.532;7.684;2023-02-22T12:21:08;99906.13;;;21.16;40.19
70468;BME280;57934;51.532;7.684;2023-02-22T12:26:19;99889.06;;;20.30;40.50
70468;BME280;57934;51.532;7.684;2023-02-22T12:28:59;99881.84;;;19.32;43.74
70468;BME280;57934;51.532;7.684;2023-02-22T12:31:35;99885.25;;;18.43;46.07
70468;BME280;57934;51.532;7.684;2023-02-22T12:34:14;99890.91;;;17.87;48.88
70468;BME280;57934;51.532;7.684;2023-02-22T12:36:48;99889.69;;;17.12;48.20
70468;BME280;57934;51.532;7.684;2023-02-22T12:39:42;99881.81;;;16.50;50.36
70468;BME280;57934;51.532;7.684;2023-02-22T12:45:10;99883.41;;;16.17;51.49
70468;BME280;57934;51.532;7.684;2023-02-22T12:47:45;99878.56;;;16.14;53.20
70468;BME280;57934;51.532;7.684;2023-02-22T12:50:25;99884.59;;;16.09;53.43
70468;BME280;57934;51.532;7.684;2023-02-22T12:53:00;99874.53;;;16.11;53.66
70468;BME280;57934;51.532;7.684;2023-02-22T12:55:53;99873.34;;;16.19;53.72
70468;BME280;57934;51.532;7.684;2023-02-22T12:58:31;99871.56;;;16.25;54.10
70468;BME280;57934;51.532;7.684;2023-02-22T13:01:10;99874.88;;;16.15;54.09
70468;BME280;57934;51.532;7.684;2023-02-22T13:03:40;99863.16;;;15.99;53.83
70468;BME280;57934;51.532;7.684;2023-02-22T13:06:11;99862.88;;;15.84;54.89
70468;BME280;57934;51.532;7.684;2023-02-22T13:09:31;99861.56;;;15.86;55.36
70468;BME280;57934;51.532;7.684;2023-02-22T13:14:40;99854.59;;;15.68;54.64
70468;BME280;57934;51.532;7.684;2023-02-22T13:17:22;99851.94;;;15.68;55.04
70468;BME280;57934;51.532;7.684;2023-02-22T13:20:22;99853.34;;;15.59;53.23
70468;BME280;57934;51.532;7.684;2023-02-22T13:23:29;99836.94;;;15.62;53.69
70468;BME280;57934;51.532;7.684;2023-02-22T13:26:05;99847.53;;;15.74;53.16
70468;BME280;57934;51.532;7.684;2023-02-22T13:28:39;99846.47;;;15.75;53.16
70468;BME280;57934;51.532;7.684;2023-02-22T13:31:52;99840.69;;;15.78;52.79
70468;BME280;57934;51.532;7.684;2023-02-22T13:34:09;99848.81;;;15.71;53.12
70468;BME280;57934;51.532;7.684;2023-02-22T13:37:00;99840.94;;;15.77;53.68
70468;BME280;57934;51.532;7.684;2023-02-22T13:42:32;99846.47;;;15.75;53.73
70468;BME280;57934;51.532;7.684;2023-02-22T13:48:17;99840.22;;;15.81;52.75
70468;BME280;57934;51.532;7.684;2023-02-22T13:51:12;99842.69;;;15.71;53.20
70468;BME280;57934;51.532;7.684;2023-02-22T13:56:09;99846.97;;;15.72;54.37
70468;BME280;57934;51.532;7.684;2023-02-22T13:58:49;99836.09;;;15.73;53.47
70468;BME280;57934;51.532;7.684;2023-02-22T14:01:44;99833.28;;;15.51;51.93
70468;BME280;57934;51.532;7.684;2023-02-22T14:06:56;99829.72;;;15.46;52.83
70468;BME280;57934;51.532;7.684;2023-02-22T14:09:56;99837.81;;;15.39;53.75
70468;BME280;57934;51.532;7.684;2023-02-22T14:17:58;99838.53;;;15.35;53.76
70468;BME280;57934;51.532;7.684;2023-02-22T14:20:33;99843.50;;;15.31;53.70
70468;BME280;57934;51.532;7.684;2023-02-22T14:23:27;99837.84;;;15.27;54.19
70468;BME280;57934;51.532;7.684;2023-02-22T14:25:56;99842.03;;;15.23;54.17
70468;BME280;57934;51.532;7.684;2023-02-22T14:28:39;99841.44;;;15.21;54.34
70468;BME280;57934;51.532;7.684;2023-02-22T14:31:14;99841.34;;;15.16;54.48
70468;BME280;57934;51.532;7.684;2023-02-22T14:34:00;99835.91;;;15.11;54.29
70468;BME280;57934;51.532;7.684;2023-02-22T14:39:05;99838.47;;;14.94;53.08
70468;BME280;57934;51.532;7.684;2023-02-22T14:41:34;99834.13;;;14.88;53.70
70468;BME280;57934;51.532;7.684;2023-02-22T14:44:02;99838.97;;;14.79;53.75
70468;BME280;57934;51.532;7.684;2023-02-22T14:46:32;99840.13;;;14.72;54.30
70468;BME280;57934;51.532;7.684;2023-02-22T14:49:04;99845.28;;;14.67;54.43
70468;BME280;57934;51.532;7.684;2023-02-22T14:51:41;99838.16;;;14.55;55.43
70468;BME280;57934;51.532;7.684;2023-02-22T14:54:23;99840.06;;;14.48;54.99